Time;durP1;ratioP1;P1;durP2;ratioP2;P2;SDS_P1;SDS_P2;PMS_P1;PMS_P2;Temp;Humidity;BMP_temperature;BMP_pressure;BME280_temperature;BME280_humidity;BME280_pressure;Samples;Min_cycle;Max_cycle;Signal;HPM_P1;HPM_P2
2024/02/03 00:00:43;;;;;;;18.65;11.98;;;10.20;93.90;;;;;;5073902;28;20103;-35
2024/02/03 00:03:09;;;;;;;18.35;11.85;;;10.20;93.90;;;;;;5074000;28;20536;-34
2024/02/03 00:05:34;;;;;;;18.33;11.27;;;10.30;93.90;;;;;;5073606;28;20477;-35
2024/02/03 00:08:00;;;;;;;17.67;10.45;;;10.20;93.90;;;;;;5073733;28;20031;-35
2024/02/03 00:10:26;;;;;;;17.08;11.13;;;10.30;93.90;;;;;;5073783;28;20025;-36
2024/02/03 00:12:51;;;;;;;16.20;10.93;;;10.30;93.90;;;;;;5072478;28;20031;-36
2024/02/03 00:15:17;;;;;;;18.67;11.48;;;10.30;93.80;;;;;;5073459;28;20021;-35
2024/02/03 00:17:43;;;;;;;17.10;11.05;;;10.30;94.10;;;;;;5073643;28;20021;-36
2024/02/03 00:20:09;;;;;;;17.02;11.77;;;10.30;93.80;;;;;;5072188;28;20044;-36
2024/02/03 00:22:35;;;;;;;16.90;11.20;;;10.30;93.80;;;;;;5073704;28;20029;-34
2024/02/03 00:25:00;;;;;;;15.88;11.85;;;10.30;93.80;;;;;;5073294;28;20472;-35
2024/02/03 00:27:26;;;;;;;18.17;11.98;;;10.30;93.80;;;;;;5073493;28;20035;-34
2024/02/03 00:29:52;;;;;;;17.83;12.02;;;10.30;93.80;;;;;;5073178;28;20016;-38
2024/02/03 00:32:17;;;;;;;18.35;11.93;;;10.40;93.80;;;;;;5073209;28;20028;-35
2024/02/03 00:34:44;;;;;;;19.13;12.65;;;10.40;93.80;;;;;;5072972;28;20055;-35
2024/02/03 00:37:10;;;;;;;18.77;12.10;;;10.40;93.80;;;;;;5072202;28;20436;-35
2024/02/03 00:39:40;;;;;;;20.05;12.60;;;10.40;93.70;;;;;;5073164;28;20024;-35
2024/02/03 00:42:06;;;;;;;19.23;12.52;;;10.40;93.70;;;;;;5073267;28;20095;-35
2024/02/03 00:44:32;;;;;;;16.88;11.57;;;10.40;93.70;;;;;;5072981;28;20422;-35
2024/02/03 00:46:57;;;;;;;19.25;13.40;;;10.40;93.70;;;;;;5072790;28;20063;-34
2024/02/03 00:49:23;;;;;;;19.05;13.25;;;10.40;93.70;;;;;;5072797;28;20397;-35
2024/02/03 00:51:48;;;;;;;17.08;12.27;;;10.40;93.70;;;;;;5072783;28;20017;-35
2024/02/03 00:54:14;;;;;;;18.65;12.02;;;10.40;93.70;;;;;;5072843;28;20040;-35
2024/02/03 00:56:39;;;;;;;18.08;12.10;;;10.40;93.70;;;;;;5071401;28;20099;-34
2024/02/03 00:59:05;;;;;;;19.10;11.82;;;10.40;93.70;;;;;;5072851;28;20020;-34
2024/02/03 01:01:31;;;;;;;19.95;11.32;;;10.40;93.70;;;;;;5072537;28;20036;-34
2024/02/03 01:03:57;;;;;;;19.58;12.10;;;10.40;93.60;;;;;;5071334;28;20021;-34
2024/02/03 01:06:23;;;;;;;17.70;11.88;;;10.40;93.60;;;;;;5072666;28;20027;-35
2024/02/03 01:08:48;;;;;;;19.90;13.05;;;10.40;93.60;;;;;;5072347;28;20028;-35
2024/02/03 01:11:14;;;;;;;19.45;11.60;;;10.40;93.60;;;;;;5072454;28;20561;-35
2024/02/03 01:13:40;;;;;;;18.83;12.48;;;10.40;93.60;;;;;;5072320;28;20031;-34
2024/02/03 01:16:06;;;;;;;17.67;12.00;;;10.40;93.60;;;;;;5072312;28;20055;-33
2024/02/03 01:18:31;;;;;;;18.63;11.82;;;10.40;93.60;;;;;;5072077;28;20035;-34
2024/02/03 01:20:57;;;;;;;17.60;12.38;;;10.40;93.60;;;;;;5072602;28;20027;-34
2024/02/03 01:23:22;;;;;;;16.23;11.45;;;10.40;93.60;;;;;;5072182;28;20027;-34
2024/02/03 01:25:49;;;;;;;18.75;11.55;;;10.40;93.90;;;;;;5071868;28;20107;-33
2024/02/03 01:28:15;;;;;;;18.75;11.77;;;10.40;93.60;;;;;;5071858;28;20111;-33
2024/02/03 01:30:41;;;;;;;17.13;11.80;;;10.40;93.60;;;;;;5072007;28;20112;-34
2024/02/03 01:33:06;;;;;;;16.92;11.75;;;10.40;93.60;;;;;;5072290;28;20020;-35
2024/02/03 01:35:32;;;;;;;17.13;11.75;;;10.40;93.60;;;;;;5070390;28;20048;-35
2024/02/03 01:37:58;;;;;;;15.13;11.10;;;10.40;93.60;;;;;;5071822;28;20122;-34
2024/02/03 01:40:23;;;;;;;15.45;10.05;;;10.40;93.60;;;;;;5072243;28;20177;-35
2024/02/03 01:42:49;;;;;;;14.38;10.32;;;10.40;93.60;;;;;;5071780;28;20017;-34
2024/02/03 01:45:14;;;;;;;14.85;9.88;;;10.40;93.60;;;;;;5072192;28;20025;-33
2024/02/03 01:47:41;;;;;;;16.08;10.35;;;10.40;93.60;;;;;;5071494;28;20030;-35
2024/02/03 01:50:08;;;;;;;17.27;11.55;;;10.40;93.60;;;;;;5071854;28;20328;-35
2024/02/03 01:52:34;;;;;;;14.48;9.85;;;10.40;93.50;;;;;;5072047;28;20044;-35
2024/02/03 01:55:00;;;;;;;13.18;9.00;;;10.40;93.50;;;;;;5071732;28;20028;-34
2024/02/03 01:57:27;;;;;;;13.73;8.68;;;10.40;93.50;;;;;;5072160;28;20476;-34
2024/02/03 01:59:53;;;;;;;14.27;9.00;;;10.40;93.80;;;;;;5071944;28;20079;-35
2024/02/03 02:02:19;;;;;;;15.75;9.77;;;10.50;93.50;;;;;;5071212;28;20469;-35
2024/02/03 02:04:44;;;;;;;15.73;9.10;;;10.50;93.50;;;;;;5071531;28;20033;-35
2024/02/03 02:07:10;;;;;;;11.70;8.25;;;10.50;93.50;;;;;;5071548;28;20023;-35
2024/02/03 02:09:36;;;;;;;12.02;8.02;;;10.50;93.40;;;;;;5071449;28;20032;-34
2024/02/03 02:12:01;;;;;;;12.80;8.52;;;10.50;93.40;;;;;;5071899;28;20024;-36
2024/02/03 02:14:27;;;;;;;15.82;8.55;;;10.60;93.70;;;;;;5071941;28;20028;-35
2024/02/03 02:16:53;;;;;;;11.93;7.63;;;10.50;93.30;;;;;;5071751;28;20024;-36
2024/02/03 02:19:19;;;;;;;12.73;8.48;;;10.50;93.30;;;;;;5071285;28;20492;-35
2024/02/03 02:21:45;;;;;;;9.68;7.05;;;10.50;93.30;;;;;;5071383;28;20099;-35
2024/02/03 02:24:12;;;;;;;13.35;7.50;;;10.50;93.40;;;;;;5071546;28;20155;-35
2024/02/03 02:26:37;;;;;;;15.82;8.75;;;10.50;93.40;;;;;;5071355;28;20476;-35
2024/02/03 02:29:03;;;;;;;14.48;8.13;;;10.60;93.40;;;;;;5071256;28;20032;-36
2024/02/03 02:31:29;;;;;;;12.43;7.75;;;10.50;93.40;;;;;;5071287;28;20076;-36
2024/02/03 02:33:54;;;;;;;9.90;6.93;;;10.50;93.40;;;;;;5071237;28;20385;-35
2024/02/03 02:36:20;;;;;;;11.73;7.32;;;10.60;93.70;;;;;;5072652;28;20028;-35
2024/02/03 02:38:45;;;;;;;13.95;7.22;;;10.60;93.40;;;;;;5075423;28;20511;-35
2024/02/03 02:41:11;;;;;;;12.90;7.53;;;10.50;93.40;;;;;;5075708;28;20036;-40
2024/02/03 02:43:37;;;;;;;12.48;6.50;;;10.50;93.40;;;;;;5075127;28;20055;-34
2024/02/03 02:46:04;;;;;;;9.73;6.40;;;10.50;93.50;;;;;;5075332;28;20074;-37
2024/02/03 02:48:30;;;;;;;11.43;6.53;;;10.50;93.60;;;;;;5075089;28;20044;-34
2024/02/03 02:50:55;;;;;;;14.73;6.63;;;10.40;93.60;;;;;;5075266;28;20036;-34
2024/02/03 02:53:21;;;;;;;17.25;7.38;;;10.50;93.70;;;;;;5075157;28;20480;-34
2024/02/03 02:55:46;;;;;;;11.02;6.38;;;10.40;93.70;;;;;;5074971;28;20049;-36
2024/02/03 02:58:12;;;;;;;12.55;6.95;;;10.40;93.70;;;;;;5074977;28;20058;-34
2024/02/03 03:00:37;;;;;;;9.60;5.95;;;10.40;93.70;;;;;;5073738;28;20435;-35
2024/02/03 03:03:04;;;;;;;12.18;6.40;;;10.50;93.80;;;;;;5074860;28;20024;-35
2024/02/03 03:05:29;;;;;;;10.07;6.50;;;10.40;93.80;;;;;;5075074;28;20040;-34
2024/02/03 03:07:55;;;;;;;12.45;6.43;;;10.40;93.80;;;;;;5073605;28;20027;-33
2024/02/03 03:10:21;;;;;;;11.98;6.78;;;10.40;93.80;;;;;;5074721;28;20099;-34
2024/02/03 03:12:46;;;;;;;11.38;6.25;;;10.40;93.90;;;;;;5073560;28;20552;-33
2024/02/03 03:15:12;;;;;;;10.60;6.53;;;10.40;94.00;;;;;;5073393;28;20050;-35
2024/02/03 03:17:38;;;;;;;12.18;6.55;;;10.40;94.00;;;;;;5056564;28;20469;-34
2024/02/03 03:20:04;;;;;;;12.05;6.45;;;10.30;94.10;;;;;;5074820;28;20021;-35
2024/02/03 03:22:30;;;;;;;8.95;5.93;;;10.30;94.20;;;;;;5074383;28;20135;-35
2024/02/03 03:24:55;;;;;;;11.25;5.93;;;10.30;94.20;;;;;;5074509;28;20070;-35
2024/02/03 03:27:21;;;;;;;10.57;6.07;;;10.30;94.30;;;;;;5074297;28;20465;-34
2024/02/03 03:29:47;;;;;;;10.50;6.95;;;10.30;94.30;;;;;;5074568;28;20029;-33
2024/02/03 03:32:13;;;;;;;12.05;5.70;;;10.30;94.30;;;;;;5074387;28;20039;-36
2024/02/03 03:34:40;;;;;;;7.97;5.28;;;10.30;94.30;;;;;;5074383;28;20496;-34
2024/02/03 03:37:06;;;;;;;8.77;5.95;;;10.40;94.40;;;;;;5074596;28;20465;-34
2024/02/03 03:39:32;;;;;;;9.93;6.30;;;10.40;94.40;;;;;;5074123;28;20028;-34
2024/02/03 03:41:57;;;;;;;11.82;6.32;;;10.40;94.30;;;;;;5072815;28;20059;-34
2024/02/03 03:44:23;;;;;;;13.20;6.68;;;10.40;94.30;;;;;;5074423;28;20020;-36
2024/02/03 03:46:49;;;;;;;10.30;6.53;;;10.40;94.30;;;;;;5073734;28;20020;-35
2024/02/03 03:49:14;;;;;;;10.82;6.78;;;10.40;94.40;;;;;;5074166;28;20033;-34
2024/02/03 03:51:40;;;;;;;9.80;7.35;;;10.40;94.40;;;;;;5074079;28;20070;-33
2024/02/03 03:54:05;;;;;;;10.52;6.88;;;10.40;94.40;;;;;;5074125;28;20024;-35
2024/02/03 03:56:31;;;;;;;9.73;7.28;;;10.40;94.40;;;;;;5074004;28;20457;-34
2024/02/03 03:58:56;;;;;;;10.25;6.60;;;10.40;94.40;;;;;;5073919;28;20470;-35
2024/02/03 04:01:22;;;;;;;13.30;7.15;;;10.40;94.40;;;;;;5072494;28;20028;-34
2024/02/03 04:03:48;;;;;;;10.38;7.50;;;10.40;94.40;;;;;;5074078;28;20016;-33
2024/02/03 04:06:14;;;;;;;12.48;7.32;;;10.40;94.40;;;;;;5074011;28;20021;-34
2024/02/03 04:08:39;;;;;;;10.77;7.18;;;10.40;94.50;;;;;;5073693;28;20039;-33
2024/02/03 04:11:05;;;;;;;11.68;7.32;;;10.40;94.50;;;;;;5073765;28;20024;-34
2024/02/03 04:13:31;;;;;;;12.68;7.22;;;10.40;94.50;;;;;;5073561;28;20082;-35
2024/02/03 04:15:57;;;;;;;13.55;7.75;;;10.40;94.50;;;;;;5073555;28;20031;-34
2024/02/03 04:18:23;;;;;;;14.55;7.10;;;10.40;94.50;;;;;;5073244;28;20024;-35
2024/02/03 04:20:49;;;;;;;11.82;7.00;;;10.40;94.50;;;;;;5073690;28;20044;-34
2024/02/03 04:23:14;;;;;;;10.50;6.85;;;10.40;94.50;;;;;;5073836;28;20468;-35
2024/02/03 04:25:40;;;;;;;11.98;7.00;;;10.40;94.50;;;;;;5073359;28;20472;-34
2024/02/03 04:28:05;;;;;;;11.45;7.00;;;10.50;94.50;;;;;;5073494;28;20124;-35
2024/02/03 04:30:31;;;;;;;11.02;6.63;;;10.40;94.50;;;;;;5073330;28;20021;-34
2024/02/03 04:32:56;;;;;;;10.80;6.03;;;10.40;94.50;;;;;;5073333;28;20078;-35
2024/02/03 04:35:22;;;;;;;11.52;6.28;;;10.40;94.50;;;;;;5073093;28;20048;-36
2024/02/03 04:37:48;;;;;;;9.38;6.35;;;10.50;94.50;;;;;;5073051;28;20028;-35
2024/02/03 04:40:14;;;;;;;9.27;5.72;;;10.50;94.50;;;;;;5073440;28;20032;-36
2024/02/03 04:42:39;;;;;;;10.05;6.28;;;10.50;94.50;;;;;;5073060;28;20365;-37
2024/02/03 04:45:05;;;;;;;10.02;5.60;;;10.50;94.50;;;;;;5071865;28;20030;-36
2024/02/03 04:47:31;;;;;;;9.88;5.20;;;10.40;94.40;;;;;;5072968;28;20021;-35
2024/02/03 04:49:57;;;;;;;9.95;5.10;;;10.50;94.40;;;;;;5072816;28;20048;-34
2024/02/03 04:52:22;;;;;;;8.32;4.90;;;10.50;94.40;;;;;;5073272;28;20021;-35
2024/02/03 04:54:48;;;;;;;8.52;4.93;;;10.50;94.40;;;;;;5071659;28;20060;-34
2024/02/03 04:57:14;;;;;;;9.90;4.90;;;10.50;94.40;;;;;;5073089;28;20016;-35
2024/02/03 04:59:40;;;;;;;11.40;4.90;;;10.50;94.30;;;;;;5072022;28;20028;-34
2024/02/03 05:02:06;;;;;;;10.48;5.20;;;10.50;94.30;;;;;;5072637;28;20024;-35
2024/02/03 05:04:31;;;;;;;12.85;5.63;;;10.50;94.30;;;;;;5072668;28;20500;-34
2024/02/03 05:06:57;;;;;;;8.57;4.97;;;10.50;94.30;;;;;;5072564;28;20031;-34
2024/02/03 05:09:22;;;;;;;10.57;5.05;;;10.50;94.30;;;;;;5071636;28;20044;-34
2024/02/03 05:11:48;;;;;;;6.28;4.38;;;10.50;94.30;;;;;;5073156;28;20449;-34
2024/02/03 05:14:14;;;;;;;11.52;5.50;;;10.50;94.30;;;;;;5073353;28;20027;-35
2024/02/03 05:16:39;;;;;;;9.18;5.28;;;10.50;94.20;;;;;;5072983;28;20063;-34
2024/02/03 05:19:09;;;;;;;7.97;5.18;;;10.50;94.20;;;;;;5072907;28;20116;-36
2024/02/03 05:21:35;;;;;;;8.00;5.00;;;10.50;94.20;;;;;;5073331;28;20346;-35
2024/02/03 05:24:01;;;;;;;10.60;5.43;;;10.50;94.20;;;;;;5072886;28;20028;-34
2024/02/03 05:26:33;;;;;;;11.15;4.97;;;10.50;94.20;;;;;;5073143;28;20452;-34
2024/02/03 05:28:58;;;;;;;11.13;5.45;;;10.50;94.20;;;;;;5072662;28;20017;-35
2024/02/03 05:31:24;;;;;;;10.43;5.03;;;10.50;94.20;;;;;;5071736;28;20077;-35
2024/02/03 05:33:49;;;;;;;12.75;4.97;;;10.50;94.20;;;;;;5072590;28;20021;-34
2024/02/03 05:36:15;;;;;;;9.18;4.85;;;10.50;94.20;;;;;;5071238;28;20028;-35
2024/02/03 05:38:40;;;;;;;8.18;4.60;;;10.50;94.20;;;;;;5072353;28;20078;-33
2024/02/03 05:41:07;;;;;;;8.55;4.70;;;10.50;94.20;;;;;;5072535;28;20465;-34
2024/02/03 05:43:32;;;;;;;9.95;4.78;;;10.50;94.20;;;;;;5072477;28;20032;-33
2024/02/03 05:45:58;;;;;;;6.65;4.20;;;10.50;94.10;;;;;;5072600;28;20033;-33
2024/02/03 05:48:23;;;;;;;8.52;4.57;;;10.60;94.10;;;;;;5071076;28;20059;-35
2024/02/03 05:50:49;;;;;;;8.00;4.47;;;10.50;94.10;;;;;;5072800;28;20120;-35
2024/02/03 05:53:14;;;;;;;9.52;4.72;;;10.60;94.10;;;;;;5072549;28;20623;-34
2024/02/03 05:55:40;;;;;;;9.45;5.15;;;10.50;94.00;;;;;;5072192;28;20091;-34
2024/02/03 05:58:06;;;;;;;7.72;4.72;;;10.60;94.00;;;;;;5072157;28;20435;-35
2024/02/03 06:00:31;;;;;;;8.52;4.30;;;10.60;94.00;;;;;;5072182;28;20013;-36
2024/02/03 06:02:58;;;;;;;7.10;4.53;;;10.50;94.00;;;;;;5072098;28;20020;-34
2024/02/03 06:05:24;;;;;;;9.07;4.30;;;10.50;94.00;;;;;;5072469;28;20085;-34
2024/02/03 06:07:50;;;;;;;8.95;4.90;;;10.60;94.00;;;;;;5072291;28;20456;-33
2024/02/03 06:10:16;;;;;;;7.85;4.20;;;10.60;94.00;;;;;;5072305;28;20059;-34
2024/02/03 06:12:41;;;;;;;9.57;4.63;;;10.60;94.00;;;;;;5072456;28;20060;-36
2024/02/03 06:15:07;;;;;;;7.63;4.38;;;10.50;93.90;;;;;;5072317;28;20028;-35
2024/02/03 06:17:33;;;;;;;7.38;4.30;;;10.60;94.00;;;;;;5072122;28;20024;-35
2024/02/03 06:19:58;;;;;;;8.07;4.13;;;10.60;94.00;;;;;;5072101;28;20027;-35
2024/02/03 06:22:24;;;;;;;9.55;4.63;;;10.60;94.00;;;;;;5071840;28;20376;-35
2024/02/03 06:24:50;;;;;;;8.85;4.40;;;10.60;94.00;;;;;;5071859;28;20020;-34
2024/02/03 06:27:15;;;;;;;7.78;4.45;;;10.60;94.00;;;;;;5072067;28;20023;-35
2024/02/03 06:29:41;;;;;;;7.28;3.85;;;10.60;94.00;;;;;;5071480;28;20028;-34
2024/02/03 06:32:06;;;;;;;6.90;4.35;;;10.60;94.00;;;;;;5072039;28;20012;-36
2024/02/03 06:34:32;;;;;;;12.70;4.70;;;10.60;93.90;;;;;;5070401;28;20124;-33
2024/02/03 06:36:58;;;;;;;7.78;4.00;;;10.60;93.90;;;;;;5071941;28;20526;-34
2024/02/03 06:39:23;;;;;;;7.40;4.22;;;10.60;93.90;;;;;;5071759;28;20476;-34
2024/02/03 06:41:49;;;;;;;7.57;3.80;;;10.60;93.90;;;;;;5071782;28;20508;-34
2024/02/03 06:44:14;;;;;;;13.52;4.25;;;10.60;93.90;;;;;;5071852;28;20043;-35
2024/02/03 06:46:40;;;;;;;6.13;3.80;;;10.60;93.80;;;;;;5072015;28;20081;-35
2024/02/03 06:49:06;;;;;;;10.20;4.35;;;10.60;93.80;;;;;;5071953;28;20032;-35
2024/02/03 06:51:31;;;;;;;8.85;4.50;;;10.60;93.80;;;;;;5071746;28;20024;-35
2024/02/03 06:53:57;;;;;;;7.93;3.75;;;10.60;93.80;;;;;;5070684;28;20021;-34
2024/02/03 06:56:22;;;;;;;8.38;3.80;;;10.60;93.80;;;;;;5071891;28;20024;-35
2024/02/03 06:58:48;;;;;;;8.02;3.83;;;10.60;93.80;;;;;;5071788;28;20029;-34
2024/02/03 07:01:13;;;;;;;6.88;3.80;;;10.60;93.70;;;;;;5071866;28;20024;-34
2024/02/03 07:03:39;;;;;;;10.45;3.95;;;10.60;93.70;;;;;;5071760;28;20078;-35
2024/02/03 07:06:05;;;;;;;8.40;3.78;;;10.60;93.70;;;;;;5071706;28;20032;-35
2024/02/03 07:08:31;;;;;;;9.20;3.70;;;10.60;93.70;;;;;;5071693;28;20516;-34
2024/02/03 07:10:56;;;;;;;11.25;3.95;;;10.60;93.70;;;;;;5071710;28;20017;-35
2024/02/03 07:13:22;;;;;;;11.50;4.40;;;10.70;93.70;;;;;;5071590;28;20389;-34
2024/02/03 07:15:49;;;;;;;10.02;4.30;;;10.70;93.70;;;;;;5071619;28;20025;-35
2024/02/03 07:18:15;;;;;;;10.40;4.03;;;10.70;93.70;;;;;;5071519;28;20029;-35
2024/02/03 07:20:41;;;;;;;6.78;3.65;;;10.70;93.60;;;;;;5070498;28;20132;-34
2024/02/03 07:23:06;;;;;;;10.32;4.00;;;10.70;93.60;;;;;;5074060;28;20036;-34
2024/02/03 07:25:32;;;;;;;9.13;3.92;;;10.70;93.60;;;;;;5075245;28;20098;-34
2024/02/03 07:27:58;;;;;;;12.13;4.90;;;10.70;93.60;;;;;;5075394;28;20017;-33
2024/02/03 07:30:24;;;;;;;15.07;5.47;;;10.70;93.60;;;;;;5075577;28;20216;-34
2024/02/03 07:32:49;;;;;;;9.77;4.65;;;10.70;93.60;;;;;;5075380;28;20354;-33
2024/02/03 07:35:15;;;;;;;11.75;5.03;;;10.70;93.60;;;;;;5075154;28;20037;-37
2024/02/03 07:37:40;;;;;;;9.45;4.60;;;10.70;93.60;;;;;;5075245;28;20028;-34
2024/02/03 07:40:07;;;;;;;11.68;4.70;;;10.70;93.70;;;;;;5075122;28;20047;-35
2024/02/03 07:42:32;;;;;;;10.82;4.60;;;10.60;93.70;;;;;;5074756;28;20047;-34
2024/02/03 07:44:59;;;;;;;11.18;5.57;;;10.60;93.70;;;;;;5075140;28;20080;-35
2024/02/03 07:47:28;;;;;;;11.55;5.70;;;10.60;93.80;;;;;;5074673;28;20063;-34
2024/02/03 07:49:53;;;;;;;11.38;5.63;;;10.60;93.80;;;;;;5074652;28;20086;-33
2024/02/03 07:52:20;;;;;;;12.63;6.00;;;10.60;93.90;;;;;;5075101;28;20064;-34
2024/02/03 07:54:46;;;;;;;11.82;5.80;;;10.60;93.90;;;;;;5074554;28;20056;-35
2024/02/03 07:57:12;;;;;;;12.98;6.70;;;10.60;94.00;;;;;;5075006;28;20025;-34
2024/02/03 07:59:38;;;;;;;12.57;7.05;;;10.60;94.00;;;;;;5074651;28;20055;-35
2024/02/03 08:02:03;;;;;;;11.23;6.78;;;10.60;94.00;;;;;;5073121;28;20028;-33
2024/02/03 08:04:29;;;;;;;16.45;7.85;;;10.60;94.10;;;;;;5074753;28;20529;-33
2024/02/03 08:06:55;;;;;;;13.77;7.60;;;10.60;94.10;;;;;;5074249;28;20070;-34
2024/02/03 08:09:20;;;;;;;12.10;8.05;;;10.60;94.10;;;;;;5074346;28;20051;-35
2024/02/03 08:11:46;;;;;;;14.82;9.13;;;10.60;94.10;;;;;;5074375;28;20021;-35
2024/02/03 08:14:11;;;;;;;14.07;8.18;;;10.60;94.10;;;;;;5074355;28;20473;-35
2024/02/03 08:16:37;;;;;;;16.25;8.30;;;10.60;94.10;;;;;;5074043;28;20048;-36
2024/02/03 08:19:03;;;;;;;13.68;8.13;;;10.60;94.10;;;;;;5074129;28;20029;-35
2024/02/03 08:21:29;;;;;;;20.48;8.85;;;10.60;94.10;;;;;;5074081;28;20032;-33
2024/02/03 08:23:54;;;;;;;17.77;8.48;;;10.60;94.10;;;;;;5074456;28;20020;-34
2024/02/03 08:26:20;;;;;;;16.95;8.52;;;10.70;94.10;;;;;;5074548;28;20380;-33
2024/02/03 08:28:45;;;;;;;17.13;8.43;;;10.70;94.10;;;;;;5073970;28;20035;-35
2024/02/03 08:31:12;;;;;;;13.95;7.90;;;10.70;94.00;;;;;;5072790;28;20025;-33
2024/02/03 08:33:37;;;;;;;14.63;8.32;;;10.70;94.00;;;;;;5073158;28;20017;-35
2024/02/03 08:36:03;;;;;;;21.45;9.52;;;10.70;94.00;;;;;;5073847;28;20047;-34
2024/02/03 08:38:29;;;;;;;13.88;8.32;;;10.70;94.00;;;;;;5073749;28;20028;-35
2024/02/03 08:40:54;;;;;;;12.57;7.57;;;10.80;94.00;;;;;;5073875;28;20040;-35
2024/02/03 08:43:20;;;;;;;14.75;7.90;;;10.80;94.00;;;;;;5074082;28;20033;-35
2024/02/03 08:45:45;;;;;;;18.33;8.75;;;10.80;93.90;;;;;;5072451;28;20033;-35
2024/02/03 08:48:11;;;;;;;17.27;8.93;;;10.80;93.90;;;;;;5073509;28;20479;-34
2024/02/03 08:50:37;;;;;;;15.10;8.10;;;10.80;93.90;;;;;;5074097;28;20094;-35
2024/02/03 08:53:02;;;;;;;14.77;8.65;;;10.80;93.90;;;;;;5073697;28;20063;-34
2024/02/03 08:55:29;;;;;;;13.68;7.85;;;10.80;93.80;;;;;;5073583;28;20032;-34
2024/02/03 08:57:55;;;;;;;14.80;7.55;;;10.90;93.80;;;;;;5073724;28;20074;-35
2024/02/03 09:00:21;;;;;;;15.35;7.82;;;10.90;93.80;;;;;;5073619;28;20105;-34
2024/02/03 09:02:47;;;;;;;13.05;6.88;;;10.90;93.70;;;;;;5073253;28;20078;-35
2024/02/03 09:05:13;;;;;;;16.35;8.73;;;10.90;93.70;;;;;;5073591;28;20032;-34
2024/02/03 09:07:39;;;;;;;16.35;7.88;;;10.90;93.60;;;;;;5073171;28;20039;-35
2024/02/03 09:10:05;;;;;;;13.18;7.35;;;10.90;93.60;;;;;;5073221;28;20029;-35
2024/02/03 09:12:30;;;;;;;15.15;7.32;;;10.90;93.60;;;;;;5073531;28;20031;-34
2024/02/03 09:14:56;;;;;;;13.20;7.13;;;10.90;93.50;;;;;;5073218;28;20024;-35
2024/02/03 09:17:22;;;;;;;13.55;6.53;;;10.90;93.50;;;;;;5073093;28;20048;-35
2024/02/03 09:19:48;;;;;;;11.40;6.25;;;11.00;93.50;;;;;;5073044;28;20039;-36
2024/02/03 09:22:14;;;;;;;15.65;6.60;;;11.00;93.50;;;;;;5071819;28;20029;-35
2024/02/03 09:24:40;;;;;;;12.10;6.70;;;11.00;93.50;;;;;;5072992;28;20080;-35
2024/02/03 09:27:06;;;;;;;12.70;6.60;;;11.10;93.50;;;;;;5073389;28;20423;-36
2024/02/03 09:29:31;;;;;;;15.27;6.60;;;11.10;93.40;;;;;;5071877;28;20025;-35
2024/02/03 09:31:57;;;;;;;12.68;6.40;;;11.10;93.40;;;;;;5072924;28;20029;-35
2024/02/03 09:34:23;;;;;;;12.38;6.20;;;11.20;93.30;;;;;;5072924;28;20082;-35
2024/02/03 09:36:48;;;;;;;9.25;5.55;;;11.20;93.30;;;;;;5073095;28;20149;-35
2024/02/03 09:39:14;;;;;;;12.95;5.72;;;11.20;93.30;;;;;;5072648;28;20479;-34
2024/02/03 09:41:40;;;;;;;13.95;5.85;;;11.20;93.30;;;;;;5072553;28;20033;-34
2024/02/03 09:44:06;;;;;;;11.02;5.70;;;11.20;93.20;;;;;;5073036;28;20507;-34
2024/02/03 09:46:32;;;;;;;12.63;6.30;;;11.20;93.20;;;;;;5072218;28;20052;-33
2024/02/03 09:48:58;;;;;;;9.77;5.32;;;11.20;93.20;;;;;;5072380;28;20507;-35
2024/02/03 09:51:24;;;;;;;13.57;6.18;;;11.20;93.20;;;;;;5072581;28;20077;-35
2024/02/03 09:53:51;;;;;;;13.95;6.55;;;11.20;93.50;;;;;;5072512;28;20025;-35
2024/02/03 09:56:17;;;;;;;12.25;6.50;;;11.20;93.20;;;;;;5072548;28;20048;-36
2024/02/03 09:58:44;;;;;;;15.63;6.90;;;11.20;93.10;;;;;;5072392;28;20476;-35
2024/02/03 10:01:09;;;;;;;12.35;7.65;;;11.20;93.10;;;;;;5072662;28;20500;-35
2024/02/03 10:03:35;;;;;;;13.43;6.00;;;11.30;93.10;;;;;;5072671;28;20071;-36
2024/02/03 10:06:02;;;;;;;10.93;6.10;;;11.20;93.10;;;;;;5072608;28;20074;-34
2024/02/03 10:08:28;;;;;;;13.55;6.30;;;11.20;93.10;;;;;;5072384;28;20430;-35
2024/02/03 10:10:55;;;;;;;12.60;6.70;;;11.30;93.10;;;;;;5072513;28;20041;-35
2024/02/03 10:13:24;;;;;;;16.35;7.13;;;11.30;93.10;;;;;;5072728;28;20032;-34
2024/02/03 10:16:01;;;;;;;17.02;7.47;;;11.30;93.10;;;;;;5072534;28;20074;-34
2024/02/03 10:18:27;;;;;;;15.77;7.15;;;11.40;93.00;;;;;;5072267;28;20028;-35
2024/02/03 10:20:54;;;;;;;14.15;7.15;;;11.40;93.30;;;;;;5072122;28;20033;-34
2024/02/03 10:23:20;;;;;;;11.00;6.65;;;11.40;93.00;;;;;;5072427;28;20443;-33
2024/02/03 10:25:45;;;;;;;13.15;6.78;;;11.40;93.00;;;;;;5072183;28;20109;-35
2024/02/03 10:28:11;;;;;;;14.43;6.57;;;11.40;93.30;;;;;;5072060;28;20115;-33
2024/02/03 10:30:38;;;;;;;11.98;6.22;;;11.40;92.90;;;;;;5072084;28;20055;-35
2024/02/03 10:33:06;;;;;;;14.27;6.30;;;11.40;92.90;;;;;;5072145;28;20028;-34
2024/02/03 10:35:33;;;;;;;13.05;5.68;;;11.40;92.90;;;;;;5072058;28;20072;-35
2024/02/03 10:37:59;;;;;;;13.25;5.80;;;11.40;92.90;;;;;;5072084;28;20055;-35
2024/02/03 10:40:28;;;;;;;10.93;5.03;;;11.40;92.90;;;;;;5072242;28;20028;-35
2024/02/03 10:42:55;;;;;;;13.27;5.35;;;11.40;92.90;;;;;;5053961;28;20036;-35
2024/02/03 10:45:25;;;;;;;15.10;5.97;;;11.40;92.80;;;;;;5072156;28;20024;-34
2024/02/03 10:47:53;;;;;;;12.52;6.28;;;11.40;92.80;;;;;;5071968;28;20029;-34
2024/02/03 10:50:22;;;;;;;16.67;6.90;;;11.40;92.80;;;;;;5072052;28;20020;-36
2024/02/03 10:52:50;;;;;;;11.95;6.13;;;11.40;92.80;;;;;;5071925;28;20028;-36
2024/02/03 10:55:18;;;;;;;10.80;5.95;;;11.40;92.80;;;;;;5071677;28;20029;-36
2024/02/03 10:57:46;;;;;;;9.00;5.10;;;11.40;92.70;;;;;;5073741;28;20473;-35
2024/02/03 11:00:16;;;;;;;11.63;5.55;;;11.40;92.80;;;;;;5074204;28;20480;-34
2024/02/03 11:02:52;;;;;;;11.45;5.85;;;11.40;92.80;;;;;;5075719;28;20465;-33
2024/02/03 11:05:18;;;;;;;8.75;5.43;;;11.40;93.10;;;;;;5075733;28;20510;-36
2024/02/03 11:07:48;;;;;;;11.27;6.25;;;11.30;92.80;;;;;;5075443;28;20095;-34
2024/02/03 11:10:14;;;;;;;14.32;5.18;;;11.30;92.90;;;;;;5075717;28;20149;-40
2024/02/03 11:12:40;;;;;;;11.35;5.22;;;11.40;93.00;;;;;;5074194;28;20082;-34
2024/02/03 11:15:14;;;;;;;11.05;5.30;;;11.30;93.00;;;;;;5075401;28;20102;-35
2024/02/03 11:17:44;;;;;;;10.23;4.63;;;11.30;93.10;;;;;;5075481;28;20392;-35
2024/02/03 11:20:20;;;;;;;12.13;4.63;;;11.30;93.10;;;;;;5075575;28;20040;-35
2024/02/03 11:22:52;;;;;;;10.30;5.15;;;11.30;93.50;;;;;;5075141;28;20032;-35
2024/02/03 11:25:21;;;;;;;13.00;4.87;;;11.20;93.30;;;;;;5075396;28;20373;-35
2024/02/03 11:27:47;;;;;;;8.70;4.57;;;11.20;93.40;;;;;;5075077;28;20507;-35
2024/02/03 11:30:17;;;;;;;7.63;4.80;;;11.20;93.50;;;;;;5075567;28;20099;-35
2024/02/03 11:32:43;;;;;;;14.50;5.25;;;11.30;93.50;;;;;;5075074;28;20025;-34
2024/02/03 11:35:09;;;;;;;10.30;5.00;;;11.20;93.50;;;;;;5075165;28;20128;-36
2024/02/03 11:37:34;;;;;;;10.98;4.82;;;11.20;93.50;;;;;;5075461;28;20468;-34
2024/02/03 11:40:10;;;;;;;9.10;4.80;;;11.20;93.60;;;;;;5074893;28;20047;-34
2024/02/03 11:42:36;;;;;;;8.48;4.05;;;11.20;93.70;;;;;;5073950;28;20035;-34
2024/02/03 11:45:12;;;;;;;8.88;4.30;;;11.10;93.70;;;;;;5075015;28;20016;-34
2024/02/03 11:47:37;;;;;;;10.63;5.43;;;11.10;93.70;;;;;;5074929;28;20109;-35
2024/02/03 11:50:03;;;;;;;8.23;5.05;;;11.20;93.80;;;;;;5074826;28;20524;-35
2024/02/03 11:52:29;;;;;;;10.48;5.13;;;11.20;93.90;;;;;;5074794;28;20031;-35
2024/02/03 11:54:54;;;;;;;7.55;4.45;;;11.10;93.90;;;;;;5074809;28;20029;-35
2024/02/03 11:57:20;;;;;;;8.82;5.07;;;11.10;94.00;;;;;;5075177;28;20441;-35
2024/02/03 11:59:45;;;;;;;11.95;4.82;;;11.10;94.00;;;;;;5074549;28;20025;-34
2024/02/03 12:02:15;;;;;;;5.60;4.20;;;11.10;94.00;;;;;;5074674;28;20065;-34
2024/02/03 12:04:40;;;;;;;10.25;4.78;;;11.10;94.10;;;;;;5074922;28;20029;-33
2024/02/03 12:07:06;;;;;;;9.10;4.53;;;11.20;94.10;;;;;;5074418;28;20027;-35
2024/02/03 12:09:31;;;;;;;7.35;4.07;;;11.10;94.10;;;;;;5074408;28;20035;-35
2024/02/03 12:11:58;;;;;;;8.30;3.58;;;11.20;94.20;;;;;;5074672;28;20029;-35
2024/02/03 12:14:26;;;;;;;4.15;3.35;;;11.10;94.20;;;;;;5074915;28;20043;-35
2024/02/03 12:16:52;;;;;;;12.25;4.18;;;11.20;94.20;;;;;;5074674;28;20025;-34
2024/02/03 12:19:17;;;;;;;8.02;3.78;;;11.20;94.20;;;;;;5074695;28;20066;-35
2024/02/03 12:21:46;;;;;;;6.10;4.57;;;11.20;94.30;;;;;;5072993;28;20582;-35
2024/02/03 12:24:12;;;;;;;11.15;5.28;;;11.10;94.30;;;;;;5074340;28;20051;-34
2024/02/03 12:26:39;;;;;;;7.25;4.45;;;11.20;94.30;;;;;;5074343;28;20032;-35
2024/02/03 12:29:05;;;;;;;8.82;3.78;;;11.20;94.30;;;;;;5073771;28;20032;-33
2024/02/03 12:31:30;;;;;;;6.55;3.92;;;11.20;94.30;;;;;;5072781;28;20025;-36